Pansey, Alabama
Current Conditions -  °F | °C
As of 8:17 PM on Sunday 23 Nov 2014 (Local Time) from KDHN Reporting Station
Overcast Overcast  
Wind Chill: 66°   Ceiling: 800
Heat Index: 66°   Visibility: 10mi
Dew Point: 64°   Wind: 13mph
Humidity: 94%   Direction: 200°SSW
Pressure: 29.82"   Gusts: NA
Location:  31.15°N, 85.18°W
Report Text: KDHN 240217Z AUTO 20011KT 10SM BKN008 OVC012 19/18 A2982 RMK AO2
Loading
Personal Weather Stations






























Interactive Weather Map New forecast layout! Learn more

10-Day Weather Forecast

Advertisements
Track Severe Weather on mobile